Time;durP1;ratioP1;P1;durP2;ratioP2;P2;SDS_P1;SDS_P2;PMS_P1;PMS_P2;Temp;Humidity;BMP_temperature;BMP_pressure;BME280_temperature;BME280_humidity;BME280_pressure;Samples;Min_cycle;Max_cycle;Signal;HPM_P1;HPM_P2
2022/06/11 00:00:06;;;;;;;;;;;;;;;16.88;69.48;101692.16;5042834;28;19999;-79
2022/06/11 00:02:31;;;;;;;;;;;;;;;16.85;70.43;101691.41;5042761;28;19920;-79
2022/06/11 00:04:57;;;;;;;;;;;;;;;16.85;69.62;101691.41;5043116;28;20008;-79
2022/06/11 00:07:23;;;;;;;;;;;;;;;16.86;67.73;101688.75;5042257;28;19925;-79
2022/06/11 00:09:49;;;;;;;;;;;;;;;16.89;66.88;101690.41;5041841;28;19929;-76
2022/06/11 00:12:15;;;;;;;;;;;;;;;16.86;68.54;101698.38;5039752;28;20665;-76
2022/06/11 00:14:41;;;;;;;;;;;;;;;16.83;68.46;101687.97;5040310;28;20299;-76
2022/06/11 00:17:08;;;;;;;;;;;;;;;16.86;67.60;101698.38;5041237;28;19921;-76
2022/06/11 00:19:34;;;;;;;;;;;;;;;16.84;67.79;101702.81;5044456;28;20052;-76
2022/06/11 00:22:00;;;;;;;;;;;;;;;16.83;69.02;101701.09;5039712;28;19963;-76
2022/06/11 00:24:26;;;;;;;;;;;;;;;16.82;68.90;101702.00;5036697;28;20615;-76
2022/06/11 00:26:52;;;;;;;;;;;;;;;16.83;67.77;101707.22;5046179;28;19917;-76
2022/06/11 00:29:18;;;;;;;;;;;;;;;16.80;69.39;101707.31;5045945;28;19928;-76
2022/06/11 00:31:44;;;;;;;;;;;;;;;16.79;69.43;101716.06;5048133;28;19956;-76
2022/06/11 00:34:13;;;;;;;;;;;;;;;16.81;67.90;101721.28;5048239;28;20535;-76
2022/06/11 00:36:39;;;;;;;;;;;;;;;16.83;67.12;101716.84;5045561;28;20334;-76
2022/06/11 00:39:05;;;;;;;;;;;;;;;16.81;68.23;101716.91;5046797;28;19931;-76
2022/06/11 00:41:31;;;;;;;;;;;;;;;16.80;68.26;101715.19;5050906;28;19924;-76
2022/06/11 00:43:57;;;;;;;;;;;;;;;16.81;70.38;101716.03;5039127;28;20450;-77
2022/06/11 00:46:37;;;;;;;;;;;;;;;16.77;68.89;101717.91;5049654;28;19935;-76
2022/06/11 00:49:04;;;;;;;;;;;;;;;16.77;69.67;101711.78;5048305;28;19921;-79
2022/06/11 00:51:31;;;;;;;;;;;;;;;16.75;71.15;101711.00;5048975;28;19920;-78
2022/06/11 00:54:01;;;;;;;;;;;;;;;16.76;69.74;101715.34;5046438;28;19935;-82
2022/06/11 00:56:37;;;;;;;;;;;;;;;16.75;69.99;101717.09;5047767;28;19925;-83
2022/06/11 00:59:04;;;;;;;;;;;;;;;16.70;69.88;101710.28;5040474;28;19956;-83
2022/06/11 01:01:30;;;;;;;;;;;;;;;16.71;71.06;101709.34;5041401;28;19941;-83
2022/06/11 01:03:58;;;;;;;;;;;;;;;16.68;71.37;101710.28;5040999;28;20288;-83
2022/06/11 01:06:32;;;;;;;;;;;;;;;16.69;71.86;101704.19;5044244;28;19931;-82
2022/06/11 01:09:01;;;;;;;;;;;;;;;16.70;70.26;101703.25;5042111;28;19942;-82
2022/06/11 01:11:30;;;;;;;;;;;;;;;16.70;71.22;101710.28;5043235;28;19921;-83
2022/06/11 01:14:14;;;;;;;;;;;;;;;16.68;72.08;101698.94;5044585;28;20395;-83
2022/06/11 01:16:39;;;;;;;;;;;;;;;16.70;70.33;101699.78;5045069;28;19983;-83
2022/06/11 01:19:31;;;;;;;;;;;;;;;16.71;70.89;101702.34;5044161;28;19944;-82
2022/06/11 01:22:26;;;;;;;;;;;;;;;16.67;71.08;101702.47;5043317;28;19925;-83
2022/06/11 01:24:51;;;;;;;;;;;;;;;16.66;70.89;101712.09;5040928;28;19925;-83
2022/06/11 01:27:19;;;;;;;;;;;;;;;16.66;71.37;101700.75;5045473;28;19989;-82
2022/06/11 01:29:46;;;;;;;;;;;;;;;16.66;71.61;101709.47;5047253;28;20474;-82
2022/06/11 01:32:15;;;;;;;;;;;;;;;16.65;71.49;101702.50;5036881;28;19917;-83
2022/06/11 01:34:44;;;;;;;;;;;;;;;16.66;70.44;101695.50;5046121;28;20011;-82
2022/06/11 01:37:13;;;;;;;;;;;;;;;16.65;71.62;101704.25;5043521;28;19974;-82
2022/06/11 01:40:02;;;;;;;;;;;;;;;16.63;72.02;101704.34;5045961;28;20485;-76
2022/06/11 01:42:31;;;;;;;;;;;;;;;16.62;72.10;101701.75;5043412;28;20001;-76
2022/06/11 01:45:11;;;;;;;;;;;;;;;16.62;71.94;101696.50;5046683;28;19921;-79
2022/06/11 01:47:36;;;;;;;;;;;;;;;16.64;72.20;101698.16;5044159;28;19944;-79
2022/06/11 01:50:03;;;;;;;;;;;;;;;16.64;71.85;101700.78;5045069;28;19968;-79
2022/06/11 01:52:31;;;;;;;;;;;;;;;16.64;72.37;101703.41;5040214;28;19955;-79
2022/06/11 01:54:56;;;;;;;;;;;;;;;16.65;72.14;101697.25;5042265;28;19924;-79
2022/06/11 01:57:37;;;;;;;;;;;;;;;16.64;72.53;101695.53;5039645;28;19925;-79
2022/06/11 02:00:09;;;;;;;;;;;;;;;16.65;72.39;101702.50;5042151;28;19932;-79
2022/06/11 02:02:34;;;;;;;;;;;;;;;16.61;72.50;101694.78;5042661;28;19917;-79
2022/06/11 02:05:00;;;;;;;;;;;;;;;16.62;73.35;101697.34;5059639;28;19939;-79
2022/06/11 02:07:29;;;;;;;;;;;;;;;16.60;73.10;101700.94;5044917;28;19929;-79
2022/06/11 02:09:54;;;;;;;;;;;;;;;16.60;73.13;101701.81;5045097;28;19975;-79
2022/06/11 02:12:28;;;;;;;;;;;;;;;16.59;73.99;101700.06;5041534;28;20364;-79
2022/06/11 02:15:01;;;;;;;;;;;;;;;16.59;73.62;101701.84;5044497;28;19928;-79
2022/06/11 02:17:30;;;;;;;;;;;;;;;16.57;73.58;101704.53;5041701;28;19972;-79
2022/06/11 02:20:07;;;;;;;;;;;;;;;16.57;73.80;101715.00;5043399;28;20392;-79
2022/06/11 02:22:39;;;;;;;;;;;;;;;16.56;74.02;101712.41;5043404;28;20014;-79
2022/06/11 02:25:08;;;;;;;;;;;;;;;16.55;73.95;101716.81;5043363;28;19925;-79
2022/06/11 02:27:35;;;;;;;;;;;;;;;16.56;74.21;101709.78;5048675;28;20066;-79
2022/06/11 02:30:01;;;;;;;;;;;;;;;16.55;74.46;101714.19;5047388;28;19916;-79
2022/06/11 02:32:30;;;;;;;;;;;;;;;16.55;73.02;101715.97;5044512;28;20609;-79
2022/06/11 02:35:01;;;;;;;;;;;;;;;16.58;72.47;101715.88;5044906;28;19931;-79
2022/06/11 02:37:29;;;;;;;;;;;;;;;16.58;72.74;101706.22;5041664;28;19929;-76
2022/06/11 02:39:56;;;;;;;;;;;;;;;16.58;72.89;101715.88;5040404;28;19924;-76
2022/06/11 02:42:23;;;;;;;;;;;;;;;16.54;73.57;101712.47;5061113;28;19925;-82
2022/06/11 02:44:48;;;;;;;;;;;;;;;16.53;73.29;101706.38;5038451;28;19931;-82
2022/06/11 02:47:15;;;;;;;;;;;;;;;16.53;73.74;101718.63;5040664;28;20346;-82
2022/06/11 02:49:41;;;;;;;;;;;;;;;16.49;74.30;101717.84;5041499;28;19924;-83
2022/06/11 02:52:09;;;;;;;;;;;;;;;16.50;74.62;101724.81;5038207;28;19979;-82
2022/06/11 02:54:34;;;;;;;;;;;;;;;16.48;74.06;101718.78;5041706;28;20991;-82
2022/06/11 02:57:01;;;;;;;;;;;;;;;16.48;73.68;101716.16;5041566;28;19917;-82
2022/06/11 02:59:27;;;;;;;;;;;;;;;16.49;74.47;101724.88;5039809;28;20292;-83
2022/06/11 03:01:53;;;;;;;;;;;;;;;16.46;74.94;101719.72;5044161;28;19928;-83
2022/06/11 03:04:18;;;;;;;;;;;;;;;16.47;74.74;101721.44;5041042;28;19925;-82
2022/06/11 03:06:44;;;;;;;;;;;;;;;16.46;74.20;101717.94;5040816;28;19931;-76
2022/06/11 03:09:12;;;;;;;;;;;;;;;16.45;74.70;101724.13;5044651;28;19925;-76
2022/06/11 03:11:38;;;;;;;;;;;;;;;16.45;74.66;101718.00;5039359;28;19917;-76
2022/06/11 03:14:03;;;;;;;;;;;;;;;16.42;74.86;101723.34;5040368;28;19929;-76
2022/06/11 03:16:29;;;;;;;;;;;;;;;16.43;75.12;101722.44;5041113;28;19925;-76
2022/06/11 03:18:54;;;;;;;;;;;;;;;16.42;75.32;101726.84;5040773;28;19983;-76
2022/06/11 03:21:20;;;;;;;;;;;;;;;16.41;75.05;101730.34;5041364;28;19963;-76
2022/06/11 03:23:45;;;;;;;;;;;;;;;16.43;74.86;101725.06;5043602;28;19925;-76
2022/06/11 03:26:11;;;;;;;;;;;;;;;16.43;75.57;101725.06;5045047;28;19932;-76
2022/06/11 03:28:36;;;;;;;;;;;;;;;16.42;75.23;101733.84;5044018;28;20388;-76
2022/06/11 03:31:05;;;;;;;;;;;;;;;16.43;75.45;101727.69;5041780;28;19921;-76
2022/06/11 03:33:31;;;;;;;;;;;;;;;16.43;75.45;101728.53;5041891;28;19971;-76
2022/06/11 03:35:56;;;;;;;;;;;;;;;16.40;75.63;101736.47;5039325;28;19999;-76
2022/06/11 03:38:22;;;;;;;;;;;;;;;16.38;75.69;101724.31;5042367;28;19925;-76
2022/06/11 03:40:47;;;;;;;;;;;;;;;16.40;75.24;101731.25;5041559;28;20365;-76
2022/06/11 03:43:13;;;;;;;;;;;;;;;16.43;75.20;101738.19;5042173;28;19988;-76
2022/06/11 03:45:38;;;;;;;;;;;;;;;16.41;75.09;101732.09;5044734;28;19929;-76
2022/06/11 03:48:05;;;;;;;;;;;;;;;16.42;74.13;101739.94;5040242;28;19975;-76
2022/06/11 03:50:34;;;;;;;;;;;;;;;16.44;74.81;101742.50;5046953;28;20585;-76
2022/06/11 03:53:00;;;;;;;;;;;;;;;16.45;74.81;101745.09;5040324;28;19933;-76
2022/06/11 03:55:26;;;;;;;;;;;;;;;16.46;74.20;101741.53;5041297;28;20410;-76
2022/06/11 03:57:52;;;;;;;;;;;;;;;16.45;74.51;101744.22;5057440;28;19924;-76
2022/06/11 04:01:14;;;;;;;;;;;;;;;16.46;73.90;101744.16;5042322;28;20300;-76
2022/06/11 04:03:04;;;;;;;;;;;;;;;16.44;74.94;101748.63;5053513;28;19925;-76
2022/06/11 04:05:30;;;;;;;;;;;;;;;16.45;74.88;101752.09;5047912;28;19924;-76
2022/06/11 04:07:55;;;;;;;;;;;;;;;16.44;73.30;101748.63;5043425;28;20442;-76
2022/06/11 04:10:20;;;;;;;;;;;;;;;16.46;72.46;101753.81;5049224;28;19917;-76
2022/06/11 04:12:46;;;;;;;;;;;;;;;16.47;72.83;101763.38;5043795;28;20657;-76
2022/06/11 04:15:11;;;;;;;;;;;;;;;16.50;71.88;101752.81;5044235;28;20490;-76
2022/06/11 04:17:37;;;;;;;;;;;;;;;16.50;72.45;101760.69;5043447;28;19940;-76
2022/06/11 04:20:03;;;;;;;;;;;;;;;16.51;72.42;101767.66;5045731;28;20412;-76
2022/06/11 04:22:28;;;;;;;;;;;;;;;16.49;73.01;101769.47;5044395;28;19929;-76
2022/06/11 04:24:53;;;;;;;;;;;;;;;16.50;72.97;101758.06;5047402;28;19931;-76
2022/06/11 04:27:22;;;;;;;;;;;;;;;16.52;72.16;101758.91;5043467;28;20529;-76
2022/06/11 04:29:50;;;;;;;;;;;;;;;16.52;73.78;101758.91;5045606;28;19966;-77
2022/06/11 04:32:16;;;;;;;;;;;;;;;16.51;73.40;101758.03;5047610;28;19924;-76
2022/06/11 04:34:43;;;;;;;;;;;;;;;16.53;73.99;101768.47;5041497;28;19964;-76
2022/06/11 04:37:13;;;;;;;;;;;;;;;16.55;72.98;101766.63;5046140;28;20407;-76
2022/06/11 04:39:39;;;;;;;;;;;;;;;16.54;73.96;101767.56;5044929;28;19921;-77
2022/06/11 04:42:04;;;;;;;;;;;;;;;16.56;73.80;101762.25;5046729;28;19920;-77
2022/06/11 04:44:30;;;;;;;;;;;;;;;16.56;73.63;101757.88;5048333;28;19924;-77
2022/06/11 04:46:55;;;;;;;;;;;;;;;16.56;73.19;101757.00;5047942;28;19920;-77
2022/06/11 04:49:21;;;;;;;;;;;;;;;16.59;73.45;101770.03;5049235;28;19995;-77
2022/06/11 04:51:47;;;;;;;;;;;;;;;16.58;73.70;101770.97;5047092;28;19921;-79
2022/06/11 04:54:12;;;;;;;;;;;;;;;16.60;72.39;101764.75;5042338;28;19936;-79
2022/06/11 04:56:38;;;;;;;;;;;;;;;16.61;72.13;101763.84;5030193;28;19978;-79
2022/06/11 04:59:04;;;;;;;;;;;;;;;16.61;72.81;101760.38;5045248;28;20685;-79
2022/06/11 05:01:29;;;;;;;;;;;;;;;16.61;73.50;101769.09;5039947;28;19921;-79
2022/06/11 05:03:55;;;;;;;;;;;;;;;16.62;72.99;101760.31;5045243;28;20015;-79
2022/06/11 05:06:22;;;;;;;;;;;;;;;16.64;72.83;101755.88;5038991;28;19925;-79
2022/06/11 05:08:48;;;;;;;;;;;;;;;16.63;72.11;101763.81;5045759;28;19921;-79
2022/06/11 05:11:13;;;;;;;;;;;;;;;16.67;72.48;101768.91;5047948;28;19978;-79
2022/06/11 05:13:38;;;;;;;;;;;;;;;16.69;72.84;101766.28;5042402;28;20407;-79
2022/06/11 05:16:04;;;;;;;;;;;;;;;16.68;72.47;101768.00;5038779;28;19935;-79
2022/06/11 05:18:30;;;;;;;;;;;;;;;16.70;72.82;101773.25;5041132;28;19953;-79
2022/06/11 05:20:56;;;;;;;;;;;;;;;16.71;71.60;101765.31;5045437;28;20287;-76
2022/06/11 05:23:22;;;;;;;;;;;;;;;16.72;71.07;101777.53;5045793;28;19925;-76
2022/06/11 05:25:47;;;;;;;;;;;;;;;16.76;71.81;101780.94;5046494;28;19925;-82
2022/06/11 05:28:15;;;;;;;;;;;;;;;16.76;71.27;101779.16;5041092;28;20007;-79
2022/06/11 05:30:41;;;;;;;;;;;;;;;16.79;71.48;101783.47;5042553;28;19921;-82
2022/06/11 05:33:08;;;;;;;;;;;;;;;16.79;70.60;101786.94;5043234;28;19933;-79
2022/06/11 05:35:35;;;;;;;;;;;;;;;16.80;71.24;101790.41;5045461;28;19921;-78
2022/06/11 05:38:03;;;;;;;;;;;;;;;16.80;70.75;101790.41;5048172;28;19920;-76
2022/06/11 05:40:30;;;;;;;;;;;;;;;16.82;70.65;101788.59;5049224;28;20001;-77
2022/06/11 05:42:56;;;;;;;;;;;;;;;16.83;70.94;101790.31;5046739;28;19924;-79
2022/06/11 05:45:23;;;;;;;;;;;;;;;16.84;70.17;101795.53;5039949;28;20003;-79
2022/06/11 05:47:50;;;;;;;;;;;;;;;16.85;70.55;101788.50;5043487;28;19917;-79
2022/06/11 05:50:18;;;;;;;;;;;;;;;16.82;70.35;101778.97;5045962;28;19920;-83
2022/06/11 05:52:45;;;;;;;;;;;;;;;16.84;71.00;101781.56;5049009;28;19939;-76
2022/06/11 05:55:19;;;;;;;;;;;;;;;16.85;70.85;101789.38;5050187;28;19920;-77
2022/06/11 05:57:46;;;;;;;;;;;;;;;16.85;70.83;101786.75;5045094;28;19967;-79
2022/06/11 06:00:13;;;;;;;;;;;;;;;16.85;71.59;101786.75;5045329;28;20303;-79
2022/06/11 06:02:40;;;;;;;;;;;;;;;16.86;71.33;101787.59;5043316;28;19932;-79
2022/06/11 06:05:06;;;;;;;;;;;;;;;16.85;70.98;101770.13;5054472;28;19924;-78
2022/06/11 06:07:31;;;;;;;;;;;;;;;16.88;71.63;101778.78;5045279;28;19933;-78
2022/06/11 06:09:56;;;;;;;;;;;;;;;16.89;71.61;101775.25;5051415;28;19921;-79
2022/06/11 06:12:22;;;;;;;;;;;;;;;16.88;71.05;101785.78;5050111;28;19925;-79
2022/06/11 06:14:47;;;;;;;;;;;;;;;16.90;71.31;101784.84;5048317;28;19932;-79
2022/06/11 06:17:13;;;;;;;;;;;;;;;16.93;72.20;101790.00;5050234;28;19920;-83
2022/06/11 06:19:38;;;;;;;;;;;;;;;16.94;72.07;101785.59;5048610;28;19925;-77
2022/06/11 06:22:05;;;;;;;;;;;;;;;16.91;71.88;101777.81;5044933;28;19925;-79
2022/06/11 06:24:32;;;;;;;;;;;;;;;16.92;71.92;101784.78;5052187;28;20402;-79
2022/06/11 06:26:58;;;;;;;;;;;;;;;16.93;71.81;101784.75;5046896;28;19923;-79
2022/06/11 06:29:23;;;;;;;;;;;;;;;16.97;71.62;101788.13;5049488;28;19925;-80
2022/06/11 06:31:49;;;;;;;;;;;;;;;16.92;70.01;101793.53;5043142;28;20409;-77
2022/06/11 06:34:14;;;;;;;;;;;;;;;16.96;71.08;101791.69;5045347;28;19933;-77
2022/06/11 06:36:39;;;;;;;;;;;;;;;16.97;71.40;101790.75;5048605;28;20043;-77
2022/06/11 06:39:05;;;;;;;;;;;;;;;17.00;71.64;101796.75;5047016;28;19962;-77
2022/06/11 06:41:30;;;;;;;;;;;;;;;17.02;70.88;101800.22;5048121;28;19924;-83
2022/06/11 06:43:55;;;;;;;;;;;;;;;17.01;70.97;101803.75;5044090;28;19972;-83
2022/06/11 06:46:21;;;;;;;;;;;;;;;17.05;71.29;101807.13;5044661;28;19927;-80
2022/06/11 06:48:47;;;;;;;;;;;;;;;17.05;70.90;101802.75;5043144;28;19929;-77
2022/06/11 06:51:12;;;;;;;;;;;;;;;17.06;71.20;101808.84;5040896;28;19925;-77
2022/06/11 06:53:39;;;;;;;;;;;;;;;17.08;71.07;101808.81;5045205;28;19920;-77
2022/06/11 06:56:04;;;;;;;;;;;;;;;17.09;71.10;101806.13;5046342;28;20041;-78
2022/06/11 06:58:29;;;;;;;;;;;;;;;17.07;71.36;101813.19;5039243;28;20435;-78
2022/06/11 07:00:55;;;;;;;;;;;;;;;17.10;71.16;101809.59;5043650;28;19936;-78
2022/06/11 07:03:21;;;;;;;;;;;;;;;17.12;71.03;101808.66;5039037;28;19925;-83
2022/06/11 07:05:46;;;;;;;;;;;;;;;17.16;70.37;101812.91;5040744;28;19924;-83
2022/06/11 07:08:12;;;;;;;;;;;;;;;17.16;70.62;101812.03;5045255;28;19936;-77
2022/06/11 07:10:38;;;;;;;;;;;;;;;17.23;71.34;101818.81;5047317;28;19971;-77
2022/06/11 07:13:03;;;;;;;;;;;;;;;17.21;70.33;101816.22;5045260;28;20384;-77
2022/06/11 07:15:29;;;;;;;;;;;;;;;17.22;70.15;101812.72;5041586;28;19921;-77
2022/06/11 07:17:57;;;;;;;;;;;;;;;17.21;71.07;101807.50;5039719;28;19948;-77
2022/06/11 07:20:24;;;;;;;;;;;;;;;17.26;71.03;101811.72;5046964;28;19952;-77
2022/06/11 07:22:52;;;;;;;;;;;;;;;17.26;71.30;101814.34;5046585;28;20546;-77
2022/06/11 07:25:18;;;;;;;;;;;;;;;17.29;71.34;101809.00;5047599;28;19924;-77
2022/06/11 07:27:45;;;;;;;;;;;;;;;17.28;70.80;101820.41;5037505;28;19925;-77
2022/06/11 07:30:15;;;;;;;;;;;;;;;17.28;71.16;101820.41;5048371;28;20002;-77
2022/06/11 07:32:42;;;;;;;;;;;;;;;17.30;70.92;101815.06;5047708;28;19925;-77
2022/06/11 07:35:12;;;;;;;;;;;;;;;17.31;70.83;101812.41;5048659;28;20664;-77
2022/06/11 07:37:38;;;;;;;;;;;;;;;17.31;70.54;101811.56;5047214;28;19963;-77
2022/06/11 07:40:04;;;;;;;;;;;;;;;17.34;70.15;101809.69;5048436;28;20306;-77
2022/06/11 07:42:29;;;;;;;;;;;;;;;17.29;70.67;101814.25;5041907;28;19986;-77
2022/06/11 07:44:55;;;;;;;;;;;;;;;17.33;70.56;101814.97;5043450;28;19952;-77
2022/06/11 07:47:53;;;;;;;;;;;;;;;17.29;70.60;101803.75;5042368;28;19940;-77
2022/06/11 07:50:06;;;;;;;;;;;;;;;17.32;71.19;101808.84;5044559;28;19928;-79
2022/06/11 07:52:32;;;;;;;;;;;;;;;17.35;69.91;101797.44;5045222;28;19921;-79
2022/06/11 07:54:57;;;;;;;;;;;;;;;17.29;70.50;101806.38;5046600;28;19931;-79
2022/06/11 07:57:22;;;;;;;;;;;;;;;17.31;70.75;101808.94;5041840;28;20372;-79
2022/06/11 07:59:48;;;;;;;;;;;;;;;17.31;70.62;101806.31;5043114;28;20343;-79
2022/06/11 08:02:13;;;;;;;;;;;;;;;17.33;70.06;101814.97;5047050;28;20356;-80
2022/06/11 08:04:38;;;;;;;;;;;;;;;17.30;70.93;101817.69;5041619;28;20019;-83
2022/06/11 08:07:04;;;;;;;;;;;;;;;17.39;69.58;101818.28;5040746;28;19923;-77
2022/06/11 08:09:29;;;;;;;;;;;;;;;17.43;68.54;101814.66;5044390;28;20437;-82
2022/06/11 08:11:55;;;;;;;;;;;;;;;17.44;68.96;101816.34;5045817;28;19944;-82
2022/06/11 08:14:21;;;;;;;;;;;;;;;17.34;68.39;101811.47;5047529;28;19921;-78
2022/06/11 08:16:46;;;;;;;;;;;;;;;17.37;69.44;101819.25;5044417;28;20290;-79
2022/06/11 08:19:11;;;;;;;;;;;;;;;17.59;69.00;101808.00;5053606;28;19924;-83
2022/06/11 08:21:37;;;;;;;;;;;;;;;17.68;68.06;101813.88;5045082;28;19924;-79
2022/06/11 08:24:02;;;;;;;;;;;;;;;17.62;68.14;101812.28;5045041;28;19960;-79
2022/06/11 08:26:28;;;;;;;;;;;;;;;17.56;67.89;101817.75;5043988;28;19909;-79
2022/06/11 08:28:53;;;;;;;;;;;;;;;17.64;66.18;101814.88;5047059;28;19944;-79
2022/06/11 08:31:18;;;;;;;;;;;;;;;17.64;66.37;101815.75;5044656;28;19920;-78
2022/06/11 08:33:46;;;;;;;;;;;;;;;17.56;68.06;101820.38;5043658;28;19929;-79
2022/06/11 08:36:11;;;;;;;;;;;;;;;17.55;67.94;101818.63;5043574;28;19921;-79
2022/06/11 08:38:37;;;;;;;;;;;;;;;17.60;66.48;101820.22;5046962;28;19971;-79
2022/06/11 08:41:02;;;;;;;;;;;;;;;17.51;66.97;101817.00;5048533;28;19924;-79
2022/06/11 08:43:36;;;;;;;;;;;;;;;17.39;68.51;101825.28;5049569;28;19968;-79
2022/06/11 08:46:07;;;;;;;;;;;;;;;17.44;67.64;101813.72;5038111;28;19924;-79
2022/06/11 08:48:35;;;;;;;;;;;;;;;17.41;68.83;101818.25;5048086;28;19964;-79
2022/06/11 08:51:07;;;;;;;;;;;;;;;17.37;70.91;101806.97;5048203;28;19967;-80
2022/06/11 08:53:35;;;;;;;;;;;;;;;17.38;68.65;101807.84;5042587;28;19964;-77
2022/06/11 08:56:00;;;;;;;;;;;;;;;17.40;69.33;101816.50;5039663;28;20352;-79
2022/06/11 08:58:40;;;;;;;;;;;;;;;17.38;69.97;101810.47;5044580;28;20011;-79
2022/06/11 09:01:21;;;;;;;;;;;;;;;17.33;69.24;101807.09;5040030;28;20011;-79
2022/06/11 09:03:52;;;;;;;;;;;;;;;17.33;68.61;101799.22;5048217;28;19921;-79
2022/06/11 09:06:18;;;;;;;;;;;;;;;17.35;68.89;101800.06;5039890;28;19999;-79
2022/06/11 09:08:52;;;;;;;;;;;;;;;17.29;69.62;101800.25;5044104;28;20008;-79
2022/06/11 09:11:17;;;;;;;;;;;;;;;17.34;69.11;101783.44;5045289;28;19913;-79
2022/06/11 09:14:02;;;;;;;;;;;;;;;17.34;69.16;101785.19;5039807;28;19928;-79
2022/06/11 09:16:36;;;;;;;;;;;;;;;17.30;68.61;101789.69;5049124;28;19927;-82
2022/06/11 09:19:04;;;;;;;;;;;;;;;17.27;68.90;101788.91;5047726;28;19968;-82
2022/06/11 09:21:35;;;;;;;;;;;;;;;17.25;68.79;101788.97;5046320;28;19956;-82
2022/06/11 09:24:10;;;;;;;;;;;;;;;17.35;68.24;101784.28;5047511;28;19913;-82
2022/06/11 09:26:58;;;;;;;;;;;;;;;17.31;69.30;101791.41;5050804;28;20456;-83
2022/06/11 09:29:24;;;;;;;;;;;;;;;17.16;65.97;101777.91;5054478;28;20380;-82
2022/06/11 09:32:01;;;;;;;;;;;;;;;17.43;66.91;101777.00;5050101;28;19923;-82
2022/06/11 09:34:46;;;;;;;;;;;;;;;17.24;65.98;101776.75;5042925;28;20033;-82
2022/06/11 09:37:23;;;;;;;;;;;;;;;17.18;66.56;101782.19;5045769;28;19932;-83
2022/06/11 09:39:49;;;;;;;;;;;;;;;17.40;65.82;101779.72;5045823;28;19923;-83
2022/06/11 09:42:17;;;;;;;;;;;;;;;17.29;67.13;101774.84;5044576;28;19925;-82
2022/06/11 09:44:49;;;;;;;;;;;;;;;17.47;66.80;101779.47;5048507;28;20437;-81
2022/06/11 09:47:22;;;;;;;;;;;;;;;17.30;66.95;101786.19;5041626;28;19917;-82
2022/06/11 09:50:23;;;;;;;;;;;;;;;17.22;67.73;101780.34;5041701;28;20660;-82
2022/06/11 09:52:59;;;;;;;;;;;;;;;17.48;66.73;101783.81;4969338;28;19926;-78
2022/06/11 09:55:38;;;;;;;;;;;;;;;17.42;66.23;101784.03;5027173;28;19929;-78
2022/06/11 09:58:22;;;;;;;;;;;;;;;17.42;66.08;101777.91;5041867;28;19931;-79
2022/06/11 10:00:53;;;;;;;;;;;;;;;17.22;66.55;101782.97;5044257;28;20380;-80
2022/06/11 10:03:31;;;;;;;;;;;;;;;17.55;66.26;101784.47;5039602;28;20384;-79
2022/06/11 10:06:05;;;;;;;;;;;;;;;17.42;66.52;101778.78;5041818;28;19988;-79
2022/06/11 10:08:48;;;;;;;;;;;;;;;17.55;65.23;101782.72;5042356;28;20383;-79
2022/06/11 10:11:20;;;;;;;;;;;;;;;17.78;64.15;101778.47;5042903;28;19988;-79
2022/06/11 10:13:55;;;;;;;;;;;;;;;17.84;64.02;101778.25;5034143;28;19925;-79
2022/06/11 10:16:32;;;;;;;;;;;;;;;17.66;64.63;101774.50;5041324;28;19932;-82
2022/06/11 10:19:02;;;;;;;;;;;;;;;17.40;66.02;101777.97;5044355;28;20039;-83
2022/06/11 10:21:28;;;;;;;;;;;;;;;17.46;66.26;101771.66;5034975;28;19925;-82
2022/06/11 10:23:57;;;;;;;;;;;;;;;17.39;64.17;101771.00;5042779;28;19917;-82
2022/06/11 10:26:49;;;;;;;;;;;;;;;17.34;65.75;101774.69;5049014;28;19921;-81
2022/06/11 10:29:19;;;;;;;;;;;;;;;17.59;66.34;101776.47;5000882;28;19927;-77
2022/06/11 10:31:46;;;;;;;;;;;;;;;17.81;63.58;101781.84;5043519;28;20024;-82
2022/06/11 10:34:28;;;;;;;;;;;;;;;17.59;65.53;101779.09;5047958;28;19928;-79
2022/06/11 10:36:55;;;;;;;;;;;;;;;17.85;64.47;101777.34;5054909;28;20384;-77
2022/06/11 10:39:20;;;;;;;;;;;;;;;17.64;66.37;101780.72;5061442;28;19964;-77
2022/06/11 10:41:54;;;;;;;;;;;;;;;17.48;66.79;101777.69;5063194;28;20504;-78
2022/06/11 10:44:46;;;;;;;;;;;;;;;17.54;66.51;101774.88;5068422;28;20347;-77
2022/06/11 10:47:23;;;;;;;;;;;;;;;17.84;63.61;101776.47;5051654;28;19921;-77
2022/06/11 10:50:00;;;;;;;;;;;;;;;18.24;60.81;101778.56;5065321;28;19928;-77
2022/06/11 10:52:30;;;;;;;;;;;;;;;18.31;60.83;101772.13;5063426;28;19928;-77
2022/06/11 10:54:55;;;;;;;;;;;;;;;18.00;63.48;101772.41;5067931;28;20439;-77
2022/06/11 10:57:25;;;;;;;;;;;;;;;17.84;63.87;101773.84;5062945;28;19936;-77
2022/06/11 10:59:58;;;;;;;;;;;;;;;17.89;63.09;101765.78;5060795;28;19931;-77
2022/06/11 11:02:42;;;;;;;;;;;;;;;17.80;64.29;101764.34;5064723;28;19917;-77
2022/06/11 11:05:11;;;;;;;;;;;;;;;17.67;65.44;101770.97;5065077;28;20449;-77
2022/06/11 11:07:45;;;;;;;;;;;;;;;17.67;65.60;101767.47;5066943;28;19932;-78
2022/06/11 11:10:19;;;;;;;;;;;;;;;18.03;64.63;101764.41;5066056;28;20385;-78
2022/06/11 11:12:45;;;;;;;;;;;;;;;18.35;63.93;101765.84;5062088;28;20379;-82
2022/06/11 11:15:10;;;;;;;;;;;;;;;18.35;63.94;101762.34;5067112;28;19991;-80
2022/06/11 11:17:43;;;;;;;;;;;;;;;18.42;64.26;101758.59;5064846;28;19916;-78
2022/06/11 11:20:30;;;;;;;;;;;;;;;18.51;63.13;101748.59;5072967;28;20398;-82
2022/06/11 11:22:59;;;;;;;;;;;;;;;18.50;63.15;101754.78;5076832;28;20395;-82
2022/06/11 11:25:29;;;;;;;;;;;;;;;18.36;64.12;101757.03;5068291;28;19947;-82
2022/06/11 11:27:54;;;;;;;;;;;;;;;18.23;64.98;101757.56;5065655;28;20011;-82
2022/06/11 11:30:26;;;;;;;;;;;;;;;18.29;63.96;101757.31;5072175;28;19916;-82
2022/06/11 11:32:52;;;;;;;;;;;;;;;18.07;66.55;101760.75;5065652;28;19935;-82
2022/06/11 11:35:20;;;;;;;;;;;;;;;18.30;65.85;101759.91;5065880;28;19959;-83
2022/06/11 11:37:55;;;;;;;;;;;;;;;18.40;64.68;101760.41;5061382;28;19928;-82
2022/06/11 11:40:32;;;;;;;;;;;;;;;18.67;62.45;101755.00;5068827;28;19924;-82
2022/06/11 11:43:02;;;;;;;;;;;;;;;18.18;64.57;101755.09;5063263;28;20008;-83
2022/06/11 11:45:45;;;;;;;;;;;;;;;18.44;63.20;101751.50;5063583;28;19924;-83
2022/06/11 11:48:31;;;;;;;;;;;;;;;18.15;64.60;101748.16;5059553;28;19942;-82
2022/06/11 11:51:00;;;;;;;;;;;;;;;18.21;66.32;101755.00;5060383;28;19927;-82
2022/06/11 11:53:43;;;;;;;;;;;;;;;18.32;66.39;101759.84;5063168;28;20352;-78
2022/06/11 11:56:41;;;;;;;;;;;;;;;18.51;65.10;101739.88;5064841;28;19925;-80
2022/06/11 11:59:14;;;;;;;;;;;;;;;18.36;65.42;101745.69;5028592;28;19924;-79
2022/06/11 12:01:39;;;;;;;;;;;;;;;18.26;65.24;101742.53;5067982;28;19966;-80
2022/06/11 12:04:13;;;;;;;;;;;;;;;18.17;66.00;101745.50;5061744;28;19933;-80
2022/06/11 12:06:46;;;;;;;;;;;;;;;18.17;65.95;101748.13;5066770;28;19999;-78
2022/06/11 12:09:23;;;;;;;;;;;;;;;18.35;65.37;101750.06;5058909;28;19931;-78
2022/06/11 12:12:03;;;;;;;;;;;;;;;18.36;65.01;101735.97;5056204;28;19921;-78
2022/06/11 12:14:31;;;;;;;;;;;;;;;18.23;65.09;101747.03;5062623;28;20412;-77
2022/06/11 12:16:59;;;;;;;;;;;;;;;18.16;66.24;101742.00;5058636;28;19921;-78
2022/06/11 12:19:24;;;;;;;;;;;;;;;18.29;64.78;101737.16;5061405;28;19994;-77
2022/06/11 12:21:54;;;;;;;;;;;;;;;18.34;64.89;101735.19;5060034;28;19971;-78
2022/06/11 12:24:35;;;;;;;;;;;;;;;18.35;65.99;101731.66;5062351;28;20403;-79
2022/06/11 12:27:01;;;;;;;;;;;;;;;18.52;64.61;101737.16;5064632;28;20359;-79
2022/06/11 12:29:33;;;;;;;;;;;;;;;18.61;63.37;101728.03;5079829;28;19919;-79
2022/06/11 12:32:00;;;;;;;;;;;;;;;18.42;64.63;101732.28;5068596;28;19985;-80
2022/06/11 12:34:27;;;;;;;;;;;;;;;18.36;64.90;101738.59;5056978;28;20518;-80
2022/06/11 12:37:13;;;;;;;;;;;;;;;18.10;65.49;101736.97;5063396;28;19925;-79
2022/06/11 12:39:56;;;;;;;;;;;;;;;18.50;64.44;101733.75;5069425;28;20459;-80
2022/06/11 12:42:40;;;;;;;;;;;;;;;18.18;65.92;101733.19;5072925;28;19924;-80
2022/06/11 12:45:05;;;;;;;;;;;;;;;18.88;61.84;101726.09;5064767;28;20048;-82